sensor_id;sensor_type;location;lat;lon;timestamp;P1;durP1;ratioP1;P2;durP2;ratioP2
69434;SDS011;56625;54.322;18.582;2023-10-31T00:01:50;24.60;;;12.40;;
69434;SDS011;56625;54.322;18.582;2023-10-31T00:04:18;20.00;;;10.30;;
69434;SDS011;56625;54.322;18.582;2023-10-31T00:06:46;20.60;;;10.40;;
69434;SDS011;56625;54.322;18.582;2023-10-31T00:09:14;22.10;;;10.80;;
69434;SDS011;56625;54.322;18.582;2023-10-31T00:11:42;22.00;;;11.40;;
69434;SDS011;56625;54.322;18.582;2023-10-31T00:14:12;23.30;;;11.80;;
69434;SDS011;56625;54.322;18.582;2023-10-31T00:16:58;22.90;;;12.10;;
69434;SDS011;56625;54.322;18.582;2023-10-31T00:19:27;26.60;;;12.30;;
69434;SDS011;56625;54.322;18.582;2023-10-31T00:21:55;26.60;;;13.30;;
69434;SDS011;56625;54.322;18.582;2023-10-31T00:24:23;27.40;;;13.30;;
69434;SDS011;56625;54.322;18.582;2023-10-31T00:26:51;28.60;;;13.00;;
69434;SDS011;56625;54.322;18.582;2023-10-31T00:29:19;29.60;;;13.80;;
69434;SDS011;56625;54.322;18.582;2023-10-31T00:31:47;25.60;;;11.90;;
69434;SDS011;56625;54.322;18.582;2023-10-31T00:34:15;22.20;;;11.00;;
69434;SDS011;56625;54.322;18.582;2023-10-31T00:36:44;24.10;;;11.90;;
69434;SDS011;56625;54.322;18.582;2023-10-31T00:39:12;22.60;;;11.90;;
69434;SDS011;56625;54.322;18.582;2023-10-31T00:41:44;24.70;;;12.50;;
69434;SDS011;56625;54.322;18.582;2023-10-31T00:44:13;22.00;;;11.60;;
69434;SDS011;56625;54.322;18.582;2023-10-31T00:46:41;24.30;;;11.80;;
69434;SDS011;56625;54.322;18.582;2023-10-31T00:49:09;22.90;;;11.70;;
69434;SDS011;56625;54.322;18.582;2023-10-31T00:51:37;23.60;;;12.80;;
69434;SDS011;56625;54.322;18.582;2023-10-31T00:54:05;25.30;;;13.20;;
69434;SDS011;56625;54.322;18.582;2023-10-31T00:56:33;22.30;;;12.10;;
69434;SDS011;56625;54.322;18.582;2023-10-31T00:59:02;22.20;;;11.80;;
69434;SDS011;56625;54.322;18.582;2023-10-31T01:01:30;25.50;;;11.80;;
69434;SDS011;56625;54.322;18.582;2023-10-31T01:03:58;21.00;;;11.00;;
69434;SDS011;56625;54.322;18.582;2023-10-31T01:06:26;27.40;;;13.00;;
69434;SDS011;56625;54.322;18.582;2023-10-31T01:08:54;23.80;;;12.10;;
69434;SDS011;56625;54.322;18.582;2023-10-31T01:11:22;24.30;;;11.80;;
69434;SDS011;56625;54.322;18.582;2023-10-31T01:13:50;23.50;;;12.00;;
69434;SDS011;56625;54.322;18.582;2023-10-31T01:16:18;23.10;;;12.40;;
69434;SDS011;56625;54.322;18.582;2023-10-31T01:18:46;22.60;;;11.70;;
69434;SDS011;56625;54.322;18.582;2023-10-31T01:21:14;24.60;;;12.40;;
69434;SDS011;56625;54.322;18.582;2023-10-31T01:23:42;20.40;;;11.00;;
69434;SDS011;56625;54.322;18.582;2023-10-31T01:26:11;23.00;;;11.20;;
69434;SDS011;56625;54.322;18.582;2023-10-31T01:28:39;23.70;;;11.30;;
69434;SDS011;56625;54.322;18.582;2023-10-31T01:31:07;21.00;;;11.20;;
69434;SDS011;56625;54.322;18.582;2023-10-31T01:33:36;25.80;;;12.20;;
69434;SDS011;56625;54.322;18.582;2023-10-31T01:36:04;22.50;;;11.50;;
69434;SDS011;56625;54.322;18.582;2023-10-31T01:38:33;24.30;;;11.70;;
69434;SDS011;56625;54.322;18.582;2023-10-31T01:41:00;22.20;;;11.80;;
69434;SDS011;56625;54.322;18.582;2023-10-31T01:45:58;26.50;;;13.40;;
69434;SDS011;56625;54.322;18.582;2023-10-31T01:48:32;25.90;;;12.30;;
69434;SDS011;56625;54.322;18.582;2023-10-31T01:51:02;23.30;;;12.10;;
69434;SDS011;56625;54.322;18.582;2023-10-31T01:53:32;27.00;;;12.50;;
69434;SDS011;56625;54.322;18.582;2023-10-31T01:56:03;23.90;;;12.60;;
69434;SDS011;56625;54.322;18.582;2023-10-31T01:58:36;22.00;;;12.30;;
69434;SDS011;56625;54.322;18.582;2023-10-31T02:01:05;23.60;;;12.00;;
69434;SDS011;56625;54.322;18.582;2023-10-31T02:03:34;22.40;;;11.80;;
69434;SDS011;56625;54.322;18.582;2023-10-31T02:06:02;25.30;;;12.60;;
69434;SDS011;56625;54.322;18.582;2023-10-31T02:08:31;23.30;;;11.50;;
69434;SDS011;56625;54.322;18.582;2023-10-31T02:10:59;23.90;;;11.30;;
69434;SDS011;56625;54.322;18.582;2023-10-31T02:13:27;23.30;;;12.60;;
69434;SDS011;56625;54.322;18.582;2023-10-31T02:15:55;24.30;;;12.70;;
69434;SDS011;56625;54.322;18.582;2023-10-31T02:18:24;23.80;;;12.50;;
69434;SDS011;56625;54.322;18.582;2023-10-31T02:20:52;26.50;;;12.80;;
69434;SDS011;56625;54.322;18.582;2023-10-31T02:23:20;23.00;;;12.30;;
69434;SDS011;56625;54.322;18.582;2023-10-31T02:25:47;20.90;;;12.00;;
69434;SDS011;56625;54.322;18.582;2023-10-31T02:28:15;22.20;;;11.50;;
69434;SDS011;56625;54.322;18.582;2023-10-31T02:30:43;22.40;;;12.10;;
69434;SDS011;56625;54.322;18.582;2023-10-31T02:33:11;21.10;;;11.60;;
69434;SDS011;56625;54.322;18.582;2023-10-31T02:35:39;22.20;;;11.30;;
69434;SDS011;56625;54.322;18.582;2023-10-31T02:38:07;24.60;;;11.80;;
69434;SDS011;56625;54.322;18.582;2023-10-31T02:40:35;20.70;;;11.50;;
69434;SDS011;56625;54.322;18.582;2023-10-31T02:43:03;21.70;;;11.50;;
69434;SDS011;56625;54.322;18.582;2023-10-31T02:45:31;24.30;;;12.00;;
69434;SDS011;56625;54.322;18.582;2023-10-31T02:47:59;21.60;;;11.70;;
69434;SDS011;56625;54.322;18.582;2023-10-31T02:50:27;22.10;;;11.50;;
69434;SDS011;56625;54.322;18.582;2023-10-31T02:52:55;22.20;;;11.30;;
69434;SDS011;56625;54.322;18.582;2023-10-31T02:55:22;22.90;;;11.30;;
69434;SDS011;56625;54.322;18.582;2023-10-31T02:57:50;21.60;;;11.10;;
69434;SDS011;56625;54.322;18.582;2023-10-31T03:00:18;22.30;;;11.30;;
69434;SDS011;56625;54.322;18.582;2023-10-31T03:02:46;21.70;;;11.50;;
69434;SDS011;56625;54.322;18.582;2023-10-31T03:05:15;19.90;;;10.50;;
69434;SDS011;56625;54.322;18.582;2023-10-31T03:07:43;23.00;;;11.20;;
69434;SDS011;56625;54.322;18.582;2023-10-31T03:10:13;21.60;;;11.10;;
69434;SDS011;56625;54.322;18.582;2023-10-31T03:12:41;20.20;;;11.10;;
69434;SDS011;56625;54.322;18.582;2023-10-31T03:15:09;20.00;;;10.90;;
69434;SDS011;56625;54.322;18.582;2023-10-31T03:17:38;22.00;;;11.70;;
69434;SDS011;56625;54.322;18.582;2023-10-31T03:20:06;20.30;;;10.90;;
69434;SDS011;56625;54.322;18.582;2023-10-31T03:22:37;24.00;;;11.80;;
69434;SDS011;56625;54.322;18.582;2023-10-31T03:25:05;21.30;;;12.00;;
69434;SDS011;56625;54.322;18.582;2023-10-31T03:27:34;20.60;;;10.50;;
69434;SDS011;56625;54.322;18.582;2023-10-31T03:30:02;20.30;;;11.00;;
69434;SDS011;56625;54.322;18.582;2023-10-31T03:32:31;21.60;;;11.50;;
69434;SDS011;56625;54.322;18.582;2023-10-31T03:34:59;21.40;;;10.90;;
69434;SDS011;56625;54.322;18.582;2023-10-31T03:37:28;22.70;;;11.00;;
69434;SDS011;56625;54.322;18.582;2023-10-31T03:39:56;21.60;;;12.10;;
69434;SDS011;56625;54.322;18.582;2023-10-31T03:42:24;22.00;;;11.60;;
69434;SDS011;56625;54.322;18.582;2023-10-31T03:44:52;21.70;;;11.30;;
69434;SDS011;56625;54.322;18.582;2023-10-31T03:47:20;21.90;;;11.70;;
69434;SDS011;56625;54.322;18.582;2023-10-31T03:49:47;22.30;;;11.70;;
69434;SDS011;56625;54.322;18.582;2023-10-31T03:52:16;21.90;;;10.70;;
69434;SDS011;56625;54.322;18.582;2023-10-31T03:54:43;19.20;;;11.00;;
69434;SDS011;56625;54.322;18.582;2023-10-31T03:57:11;22.00;;;10.90;;
69434;SDS011;56625;54.322;18.582;2023-10-31T03:59:39;23.00;;;11.40;;
69434;SDS011;56625;54.322;18.582;2023-10-31T04:02:07;23.40;;;12.50;;
69434;SDS011;56625;54.322;18.582;2023-10-31T04:04:35;22.80;;;11.90;;
69434;SDS011;56625;54.322;18.582;2023-10-31T04:07:03;25.40;;;12.20;;
69434;SDS011;56625;54.322;18.582;2023-10-31T04:09:31;24.00;;;12.00;;
69434;SDS011;56625;54.322;18.582;2023-10-31T04:11:59;22.70;;;12.00;;
69434;SDS011;56625;54.322;18.582;2023-10-31T04:14:27;21.60;;;11.40;;
69434;SDS011;56625;54.322;18.582;2023-10-31T04:16:55;21.70;;;11.80;;
69434;SDS011;56625;54.322;18.582;2023-10-31T04:19:23;23.00;;;11.80;;
69434;SDS011;56625;54.322;18.582;2023-10-31T04:21:53;22.80;;;11.20;;
69434;SDS011;56625;54.322;18.582;2023-10-31T04:24:21;22.70;;;12.00;;
69434;SDS011;56625;54.322;18.582;2023-10-31T04:26:49;23.80;;;11.70;;
69434;SDS011;56625;54.322;18.582;2023-10-31T04:29:17;22.80;;;11.60;;
69434;SDS011;56625;54.322;18.582;2023-10-31T04:31:46;23.80;;;11.50;;
69434;SDS011;56625;54.322;18.582;2023-10-31T04:34:14;20.70;;;11.20;;
69434;SDS011;56625;54.322;18.582;2023-10-31T04:36:42;22.00;;;10.70;;
69434;SDS011;56625;54.322;18.582;2023-10-31T04:39:10;21.10;;;10.70;;
69434;SDS011;56625;54.322;18.582;2023-10-31T04:41:38;18.90;;;10.40;;
69434;SDS011;56625;54.322;18.582;2023-10-31T04:44:06;21.60;;;11.10;;
69434;SDS011;56625;54.322;18.582;2023-10-31T04:46:34;23.40;;;11.70;;
69434;SDS011;56625;54.322;18.582;2023-10-31T04:49:02;20.30;;;10.90;;
69434;SDS011;56625;54.322;18.582;2023-10-31T04:51:36;19.30;;;10.50;;
69434;SDS011;56625;54.322;18.582;2023-10-31T04:54:05;19.50;;;10.30;;
69434;SDS011;56625;54.322;18.582;2023-10-31T04:56:33;21.80;;;10.70;;
69434;SDS011;56625;54.322;18.582;2023-10-31T04:59:01;21.00;;;10.00;;
69434;SDS011;56625;54.322;18.582;2023-10-31T05:01:30;19.30;;;10.40;;
69434;SDS011;56625;54.322;18.582;2023-10-31T05:03:58;21.00;;;10.30;;
69434;SDS011;56625;54.322;18.582;2023-10-31T05:06:39;19.00;;;10.10;;
69434;SDS011;56625;54.322;18.582;2023-10-31T05:09:07;23.60;;;11.60;;
69434;SDS011;56625;54.322;18.582;2023-10-31T05:11:36;18.90;;;10.00;;
69434;SDS011;56625;54.322;18.582;2023-10-31T05:14:04;18.00;;;9.50;;
69434;SDS011;56625;54.322;18.582;2023-10-31T05:16:39;20.80;;;9.50;;
69434;SDS011;56625;54.322;18.582;2023-10-31T05:19:09;20.30;;;10.70;;
69434;SDS011;56625;54.322;18.582;2023-10-31T05:21:38;19.00;;;10.00;;
69434;SDS011;56625;54.322;18.582;2023-10-31T05:24:09;18.20;;;9.30;;
69434;SDS011;56625;54.322;18.582;2023-10-31T05:26:39;18.40;;;9.50;;
69434;SDS011;56625;54.322;18.582;2023-10-31T05:29:14;21.60;;;9.90;;
69434;SDS011;56625;54.322;18.582;2023-10-31T05:31:42;19.50;;;9.70;;
69434;SDS011;56625;54.322;18.582;2023-10-31T05:34:11;18.70;;;9.60;;
69434;SDS011;56625;54.322;18.582;2023-10-31T05:36:39;19.40;;;10.40;;
69434;SDS011;56625;54.322;18.582;2023-10-31T05:39:07;23.80;;;10.50;;
69434;SDS011;56625;54.322;18.582;2023-10-31T05:41:36;20.30;;;11.10;;
69434;SDS011;56625;54.322;18.582;2023-10-31T05:44:04;23.50;;;10.80;;
69434;SDS011;56625;54.322;18.582;2023-10-31T05:46:40;19.90;;;9.90;;
69434;SDS011;56625;54.322;18.582;2023-10-31T05:49:10;18.70;;;10.00;;
69434;SDS011;56625;54.322;18.582;2023-10-31T05:51:38;20.20;;;10.60;;
69434;SDS011;56625;54.322;18.582;2023-10-31T05:54:07;20.20;;;10.20;;
69434;SDS011;56625;54.322;18.582;2023-10-31T05:56:36;20.80;;;10.80;;
69434;SDS011;56625;54.322;18.582;2023-10-31T05:59:04;21.50;;;10.80;;
69434;SDS011;56625;54.322;18.582;2023-10-31T06:01:36;19.20;;;9.80;;
69434;SDS011;56625;54.322;18.582;2023-10-31T06:04:06;20.00;;;9.90;;
69434;SDS011;56625;54.322;18.582;2023-10-31T06:06:37;18.60;;;11.10;;
69434;SDS011;56625;54.322;18.582;2023-10-31T06:09:05;19.10;;;10.10;;
69434;SDS011;56625;54.322;18.582;2023-10-31T06:11:33;20.50;;;10.70;;
69434;SDS011;56625;54.322;18.582;2023-10-31T06:14:01;20.80;;;11.00;;
69434;SDS011;56625;54.322;18.582;2023-10-31T06:16:29;22.40;;;10.70;;
69434;SDS011;56625;54.322;18.582;2023-10-31T06:18:57;20.10;;;11.00;;
69434;SDS011;56625;54.322;18.582;2023-10-31T06:21:25;19.20;;;11.00;;
69434;SDS011;56625;54.322;18.582;2023-10-31T06:23:53;18.80;;;10.80;;
69434;SDS011;56625;54.322;18.582;2023-10-31T06:26:21;19.20;;;11.10;;
69434;SDS011;56625;54.322;18.582;2023-10-31T06:28:49;18.80;;;10.40;;
69434;SDS011;56625;54.322;18.582;2023-10-31T06:31:37;21.90;;;11.80;;
69434;SDS011;56625;54.322;18.582;2023-10-31T06:34:05;21.70;;;11.60;;
69434;SDS011;56625;54.322;18.582;2023-10-31T06:36:33;18.30;;;10.70;;
69434;SDS011;56625;54.322;18.582;2023-10-31T06:39:01;20.20;;;10.90;;
69434;SDS011;56625;54.322;18.582;2023-10-31T06:41:30;20.50;;;10.70;;
69434;SDS011;56625;54.322;18.582;2023-10-31T06:43:58;23.40;;;12.20;;
69434;SDS011;56625;54.322;18.582;2023-10-31T06:46:26;21.30;;;12.10;;
69434;SDS011;56625;54.322;18.582;2023-10-31T06:48:54;19.70;;;11.10;;
69434;SDS011;56625;54.322;18.582;2023-10-31T06:51:22;22.40;;;11.20;;
69434;SDS011;56625;54.322;18.582;2023-10-31T06:53:50;25.70;;;11.20;;
69434;SDS011;56625;54.322;18.582;2023-10-31T06:56:19;24.20;;;8.90;;
69434;SDS011;56625;54.322;18.582;2023-10-31T06:58:46;20.70;;;10.30;;
69434;SDS011;56625;54.322;18.582;2023-10-31T07:01:15;29.20;;;12.50;;
69434;SDS011;56625;54.322;18.582;2023-10-31T07:03:47;29.20;;;12.30;;
69434;SDS011;56625;54.322;18.582;2023-10-31T07:06:15;23.60;;;12.20;;
69434;SDS011;56625;54.322;18.582;2023-10-31T07:08:43;23.10;;;12.20;;
69434;SDS011;56625;54.322;18.582;2023-10-31T07:11:11;20.00;;;11.00;;
69434;SDS011;56625;54.322;18.582;2023-10-31T07:13:39;20.40;;;10.80;;
69434;SDS011;56625;54.322;18.582;2023-10-31T07:16:07;19.70;;;11.00;;
69434;SDS011;56625;54.322;18.582;2023-10-31T07:18:35;25.40;;;10.30;;
69434;SDS011;56625;54.322;18.582;2023-10-31T07:21:03;19.10;;;10.70;;
69434;SDS011;56625;54.322;18.582;2023-10-31T07:23:32;20.10;;;11.60;;
69434;SDS011;56625;54.322;18.582;2023-10-31T07:26:02;20.80;;;10.00;;
69434;SDS011;56625;54.322;18.582;2023-10-31T07:28:30;21.00;;;11.80;;
69434;SDS011;56625;54.322;18.582;2023-10-31T07:30:59;23.50;;;11.90;;
69434;SDS011;56625;54.322;18.582;2023-10-31T07:33:27;22.40;;;11.60;;
69434;SDS011;56625;54.322;18.582;2023-10-31T07:35:55;20.10;;;12.30;;
69434;SDS011;56625;54.322;18.582;2023-10-31T07:38:23;22.70;;;12.30;;
69434;SDS011;56625;54.322;18.582;2023-10-31T07:40:51;23.40;;;12.80;;
69434;SDS011;56625;54.322;18.582;2023-10-31T07:43:19;24.30;;;13.70;;
69434;SDS011;56625;54.322;18.582;2023-10-31T07:45:47;21.20;;;13.10;;
69434;SDS011;56625;54.322;18.582;2023-10-31T07:48:15;22.90;;;13.70;;
69434;SDS011;56625;54.322;18.582;2023-10-31T07:50:43;24.90;;;15.40;;
69434;SDS011;56625;54.322;18.582;2023-10-31T07:53:11;27.30;;;15.80;;
69434;SDS011;56625;54.322;18.582;2023-10-31T07:55:39;26.20;;;14.90;;
69434;SDS011;56625;54.322;18.582;2023-10-31T07:58:07;25.10;;;15.00;;
69434;SDS011;56625;54.322;18.582;2023-10-31T08:00:37;25.00;;;14.50;;
69434;SDS011;56625;54.322;18.582;2023-10-31T08:03:06;28.00;;;14.50;;
69434;SDS011;56625;54.322;18.582;2023-10-31T08:05:35;28.70;;;15.10;;
69434;SDS011;56625;54.322;18.582;2023-10-31T08:08:03;27.30;;;14.80;;
69434;SDS011;56625;54.322;18.582;2023-10-31T08:10:31;27.80;;;14.80;;
69434;SDS011;56625;54.322;18.582;2023-10-31T08:13:01;27.20;;;14.70;;
69434;SDS011;56625;54.322;18.582;2023-10-31T08:15:29;28.50;;;15.30;;
69434;SDS011;56625;54.322;18.582;2023-10-31T08:17:57;24.30;;;13.90;;
69434;SDS011;56625;54.322;18.582;2023-10-31T08:20:25;26.20;;;13.70;;
69434;SDS011;56625;54.322;18.582;2023-10-31T08:22:53;21.90;;;13.20;;
69434;SDS011;56625;54.322;18.582;2023-10-31T08:25:21;19.20;;;11.70;;
69434;SDS011;56625;54.322;18.582;2023-10-31T08:27:50;21.00;;;12.50;;
69434;SDS011;56625;54.322;18.582;2023-10-31T08:30:18;19.80;;;11.50;;
69434;SDS011;56625;54.322;18.582;2023-10-31T08:32:48;23.10;;;12.00;;
69434;SDS011;56625;54.322;18.582;2023-10-31T08:35:16;19.20;;;11.10;;
69434;SDS011;56625;54.322;18.582;2023-10-31T08:37:44;23.00;;;12.70;;
69434;SDS011;56625;54.322;18.582;2023-10-31T08:40:12;23.50;;;13.00;;
69434;SDS011;56625;54.322;18.582;2023-10-31T08:42:40;22.10;;;13.10;;
69434;SDS011;56625;54.322;18.582;2023-10-31T08:45:09;21.90;;;12.40;;
69434;SDS011;56625;54.322;18.582;2023-10-31T08:47:37;20.00;;;12.10;;
69434;SDS011;56625;54.322;18.582;2023-10-31T08:50:06;23.70;;;12.70;;
69434;SDS011;56625;54.322;18.582;2023-10-31T08:52:36;20.20;;;11.40;;
69434;SDS011;56625;54.322;18.582;2023-10-31T08:55:05;19.90;;;12.30;;
69434;SDS011;56625;54.322;18.582;2023-10-31T08:57:36;21.50;;;12.20;;
69434;SDS011;56625;54.322;18.582;2023-10-31T09:00:05;19.60;;;11.70;;
69434;SDS011;56625;54.322;18.582;2023-10-31T09:02:33;22.00;;;11.80;;
69434;SDS011;56625;54.322;18.582;2023-10-31T09:05:05;21.40;;;11.80;;
69434;SDS011;56625;54.322;18.582;2023-10-31T09:07:33;22.10;;;11.60;;
69434;SDS011;56625;54.322;18.582;2023-10-31T09:10:01;21.50;;;12.00;;
69434;SDS011;56625;54.322;18.582;2023-10-31T09:12:31;18.60;;;11.10;;
69434;SDS011;56625;54.322;18.582;2023-10-31T09:15:00;21.50;;;11.50;;
69434;SDS011;56625;54.322;18.582;2023-10-31T09:17:29;18.60;;;11.40;;
69434;SDS011;56625;54.322;18.582;2023-10-31T09:19:57;18.90;;;10.70;;
69434;SDS011;56625;54.322;18.582;2023-10-31T09:22:25;19.60;;;10.50;;
69434;SDS011;56625;54.322;18.582;2023-10-31T09:24:54;18.60;;;10.60;;
69434;SDS011;56625;54.322;18.582;2023-10-31T09:27:22;19.40;;;10.90;;
69434;SDS011;56625;54.322;18.582;2023-10-31T09:29:50;18.50;;;10.50;;
69434;SDS011;56625;54.322;18.582;2023-10-31T09:32:19;20.30;;;11.10;;
69434;SDS011;56625;54.322;18.582;2023-10-31T09:34:47;19.20;;;11.20;;
69434;SDS011;56625;54.322;18.582;2023-10-31T09:37:15;19.10;;;11.40;;
69434;SDS011;56625;54.322;18.582;2023-10-31T09:39:43;21.80;;;12.10;;
69434;SDS011;56625;54.322;18.582;2023-10-31T09:42:18;18.60;;;11.30;;
69434;SDS011;56625;54.322;18.582;2023-10-31T09:44:48;20.10;;;11.60;;
69434;SDS011;56625;54.322;18.582;2023-10-31T09:47:24;20.10;;;11.50;;
69434;SDS011;56625;54.322;18.582;2023-10-31T09:49:52;21.50;;;12.10;;
69434;SDS011;56625;54.322;18.582;2023-10-31T09:52:20;19.80;;;11.10;;
69434;SDS011;56625;54.322;18.582;2023-10-31T09:54:49;19.20;;;9.90;;
69434;SDS011;56625;54.322;18.582;2023-10-31T09:57:19;19.30;;;10.30;;
69434;SDS011;56625;54.322;18.582;2023-10-31T09:59:47;18.00;;;9.30;;
69434;SDS011;56625;54.322;18.582;2023-10-31T10:02:16;15.10;;;8.40;;
69434;SDS011;56625;54.322;18.582;2023-10-31T10:04:44;15.30;;;8.40;;
69434;SDS011;56625;54.322;18.582;2023-10-31T10:07:16;14.40;;;8.60;;
69434;SDS011;56625;54.322;18.582;2023-10-31T10:09:46;15.30;;;7.90;;
69434;SDS011;56625;54.322;18.582;2023-10-31T10:12:16;14.00;;;7.40;;
69434;SDS011;56625;54.322;18.582;2023-10-31T10:14:45;13.70;;;8.00;;
69434;SDS011;56625;54.322;18.582;2023-10-31T10:17:23;16.10;;;8.10;;
69434;SDS011;56625;54.322;18.582;2023-10-31T10:20:09;14.50;;;7.70;;
69434;SDS011;56625;54.322;18.582;2023-10-31T10:22:40;15.30;;;8.60;;
69434;SDS011;56625;54.322;18.582;2023-10-31T10:25:12;13.60;;;7.40;;
69434;SDS011;56625;54.322;18.582;2023-10-31T10:27:44;14.30;;;7.30;;
69434;SDS011;56625;54.322;18.582;2023-10-31T10:30:14;12.10;;;6.60;;
69434;SDS011;56625;54.322;18.582;2023-10-31T10:32:43;11.50;;;6.60;;
69434;SDS011;56625;54.322;18.582;2023-10-31T10:35:11;11.80;;;6.30;;
69434;SDS011;56625;54.322;18.582;2023-10-31T10:37:39;10.80;;;5.20;;
69434;SDS011;56625;54.322;18.582;2023-10-31T10:40:10;9.70;;;5.20;;
69434;SDS011;56625;54.322;18.582;2023-10-31T10:42:44;9.70;;;4.80;;
69434;SDS011;56625;54.322;18.582;2023-10-31T10:45:15;9.00;;;3.90;;
69434;SDS011;56625;54.322;18.582;2023-10-31T10:47:48;9.20;;;3.90;;
69434;SDS011;56625;54.322;18.582;2023-10-31T10:50:19;8.70;;;4.00;;
69434;SDS011;56625;54.322;18.582;2023-10-31T10:53:22;8.10;;;4.20;;
69434;SDS011;56625;54.322;18.582;2023-10-31T10:55:59;7.20;;;3.60;;
69434;SDS011;56625;54.322;18.582;2023-10-31T10:58:38;8.70;;;4.30;;
69434;SDS011;56625;54.322;18.582;2023-10-31T11:01:12;8.00;;;4.10;;
69434;SDS011;56625;54.322;18.582;2023-10-31T11:03:41;5.50;;;2.20;;
69434;SDS011;56625;54.322;18.582;2023-10-31T11:06:09;8.00;;;4.20;;
69434;SDS011;56625;54.322;18.582;2023-10-31T11:08:38;6.90;;;2.70;;
69434;SDS011;56625;54.322;18.582;2023-10-31T11:11:06;6.80;;;2.70;;
69434;SDS011;56625;54.322;18.582;2023-10-31T11:13:36;6.50;;;2.70;;
69434;SDS011;56625;54.322;18.582;2023-10-31T11:16:09;7.40;;;2.90;;
69434;SDS011;56625;54.322;18.582;2023-10-31T11:18:43;7.80;;;3.60;;
69434;SDS011;56625;54.322;18.582;2023-10-31T11:21:13;7.50;;;3.40;;
69434;SDS011;56625;54.322;18.582;2023-10-31T11:23:41;7.30;;;3.30;;
69434;SDS011;56625;54.322;18.582;2023-10-31T11:26:09;7.30;;;3.50;;
69434;SDS011;56625;54.322;18.582;2023-10-31T11:28:38;7.60;;;3.60;;
69434;SDS011;56625;54.322;18.582;2023-10-31T11:31:08;6.80;;;2.80;;
69434;SDS011;56625;54.322;18.582;2023-10-31T11:33:38;6.70;;;2.60;;
69434;SDS011;56625;54.322;18.582;2023-10-31T11:36:10;4.60;;;1.50;;
69434;SDS011;56625;54.322;18.582;2023-10-31T11:38:39;6.90;;;2.60;;
69434;SDS011;56625;54.322;18.582;2023-10-31T11:41:07;6.30;;;2.30;;
69434;SDS011;56625;54.322;18.582;2023-10-31T11:46:23;7.70;;;3.30;;
69434;SDS011;56625;54.322;18.582;2023-10-31T11:48:54;6.90;;;3.40;;
69434;SDS011;56625;54.322;18.582;2023-10-31T11:51:27;6.40;;;2.80;;
69434;SDS011;56625;54.322;18.582;2023-10-31T11:53:56;5.20;;;1.70;;
69434;SDS011;56625;54.322;18.582;2023-10-31T11:56:24;5.50;;;2.30;;
69434;SDS011;56625;54.322;18.582;2023-10-31T11:59:02;6.30;;;2.30;;
69434;SDS011;56625;54.322;18.582;2023-10-31T12:01:32;5.00;;;1.90;;
69434;SDS011;56625;54.322;18.582;2023-10-31T12:04:00;5.60;;;2.30;;
69434;SDS011;56625;54.322;18.582;2023-10-31T12:06:31;6.20;;;2.10;;
69434;SDS011;56625;54.322;18.582;2023-10-31T12:09:00;5.50;;;1.70;;
69434;SDS011;56625;54.322;18.582;2023-10-31T12:11:29;5.30;;;2.40;;
69434;SDS011;56625;54.322;18.582;2023-10-31T12:14:02;6.70;;;1.90;;
69434;SDS011;56625;54.322;18.582;2023-10-31T12:16:34;4.60;;;1.50;;
69434;SDS011;56625;54.322;18.582;2023-10-31T12:19:04;3.60;;;1.10;;
69434;SDS011;56625;54.322;18.582;2023-10-31T12:21:46;4.60;;;1.40;;
69434;SDS011;56625;54.322;18.582;2023-10-31T12:24:17;6.00;;;1.90;;
69434;SDS011;56625;54.322;18.582;2023-10-31T12:26:46;5.70;;;1.90;;
69434;SDS011;56625;54.322;18.582;2023-10-31T12:29:16;4.50;;;1.30;;
69434;SDS011;56625;54.322;18.582;2023-10-31T12:31:51;4.80;;;1.20;;
69434;SDS011;56625;54.322;18.582;2023-10-31T12:34:23;4.80;;;1.20;;
69434;SDS011;56625;54.322;18.582;2023-10-31T12:36:55;6.40;;;1.50;;
69434;SDS011;56625;54.322;18.582;2023-10-31T12:39:26;4.80;;;1.60;;
69434;SDS011;56625;54.322;18.582;2023-10-31T12:41:56;4.60;;;1.40;;
69434;SDS011;56625;54.322;18.582;2023-10-31T12:44:26;5.40;;;1.80;;
69434;SDS011;56625;54.322;18.582;2023-10-31T12:46:59;5.00;;;1.50;;
69434;SDS011;56625;54.322;18.582;2023-10-31T12:49:27;5.20;;;1.50;;
69434;SDS011;56625;54.322;18.582;2023-10-31T12:51:57;4.10;;;1.50;;
69434;SDS011;56625;54.322;18.582;2023-10-31T12:54:37;4.30;;;1.40;;
69434;SDS011;56625;54.322;18.582;2023-10-31T12:57:09;4.50;;;1.50;;
69434;SDS011;56625;54.322;18.582;2023-10-31T12:59:40;5.30;;;1.40;;
69434;SDS011;56625;54.322;18.582;2023-10-31T13:02:09;3.90;;;1.40;;
69434;SDS011;56625;54.322;18.582;2023-10-31T13:04:39;5.90;;;1.60;;
69434;SDS011;56625;54.322;18.582;2023-10-31T13:07:07;4.10;;;1.10;;
69434;SDS011;56625;54.322;18.582;2023-10-31T13:09:37;5.40;;;1.80;;
69434;SDS011;56625;54.322;18.582;2023-10-31T13:12:07;5.70;;;1.60;;
69434;SDS011;56625;54.322;18.582;2023-10-31T13:14:36;4.30;;;1.60;;
69434;SDS011;56625;54.322;18.582;2023-10-31T13:17:07;4.70;;;1.60;;
69434;SDS011;56625;54.322;18.582;2023-10-31T13:19:35;4.50;;;1.50;;
69434;SDS011;56625;54.322;18.582;2023-10-31T13:22:04;4.50;;;1.40;;
69434;SDS011;56625;54.322;18.582;2023-10-31T13:24:32;4.80;;;1.70;;
69434;SDS011;56625;54.322;18.582;2023-10-31T13:27:00;5.40;;;1.80;;
69434;SDS011;56625;54.322;18.582;2023-10-31T13:29:30;6.60;;;1.50;;
69434;SDS011;56625;54.322;18.582;2023-10-31T13:31:59;5.00;;;1.50;;
69434;SDS011;56625;54.322;18.582;2023-10-31T13:34:27;5.30;;;1.60;;
69434;SDS011;56625;54.322;18.582;2023-10-31T13:36:59;4.30;;;1.70;;
69434;SDS011;56625;54.322;18.582;2023-10-31T13:39:30;4.70;;;1.50;;
69434;SDS011;56625;54.322;18.582;2023-10-31T13:41:58;3.90;;;1.30;;
69434;SDS011;56625;54.322;18.582;2023-10-31T13:44:27;6.00;;;1.80;;
69434;SDS011;56625;54.322;18.582;2023-10-31T13:46:54;5.20;;;1.90;;
69434;SDS011;56625;54.322;18.582;2023-10-31T13:49:22;4.90;;;1.70;;
69434;SDS011;56625;54.322;18.582;2023-10-31T13:51:52;6.20;;;2.20;;
69434;SDS011;56625;54.322;18.582;2023-10-31T13:54:20;6.80;;;2.20;;
69434;SDS011;56625;54.322;18.582;2023-10-31T13:56:48;5.40;;;2.10;;
69434;SDS011;56625;54.322;18.582;2023-10-31T13:59:16;7.40;;;2.70;;
69434;SDS011;56625;54.322;18.582;2023-10-31T14:01:46;4.70;;;1.70;;
69434;SDS011;56625;54.322;18.582;2023-10-31T14:04:14;5.30;;;1.60;;
69434;SDS011;56625;54.322;18.582;2023-10-31T14:06:43;4.40;;;1.40;;
69434;SDS011;56625;54.322;18.582;2023-10-31T14:09:12;5.10;;;1.80;;
69434;SDS011;56625;54.322;18.582;2023-10-31T14:11:41;5.70;;;1.60;;
69434;SDS011;56625;54.322;18.582;2023-10-31T14:14:09;5.10;;;1.80;;
69434;SDS011;56625;54.322;18.582;2023-10-31T14:16:41;7.30;;;2.00;;
69434;SDS011;56625;54.322;18.582;2023-10-31T14:19:13;4.80;;;1.60;;
69434;SDS011;56625;54.322;18.582;2023-10-31T14:21:43;4.30;;;1.40;;
69434;SDS011;56625;54.322;18.582;2023-10-31T14:24:11;5.60;;;1.80;;
69434;SDS011;56625;54.322;18.582;2023-10-31T14:26:40;5.60;;;1.80;;
69434;SDS011;56625;54.322;18.582;2023-10-31T14:29:11;4.20;;;1.10;;
69434;SDS011;56625;54.322;18.582;2023-10-31T14:31:40;4.10;;;1.10;;
69434;SDS011;56625;54.322;18.582;2023-10-31T14:34:09;4.70;;;1.40;;